10:37
Airports
History
Links
Donate
Help keep this website running!
PayPal
Bitcoin
Information on this page is community maintained and may be outdated or inaccurate and is intended for reference only or PC simulator navigating.
Always use approved charts for navigating.
MS44
Bell
Bell (MS44)
Greenville, Mississippi, United States (38703)
4
Lat/Lng:33° 30' 0.41" N / 91° 4' 0.39" W
33.500114 / -91.066774
Elevation:131'ft 40mMSL
ID / ICAO:MS44
Runways:1
Longest:(08-26) 1,062.2m 3,485ft Grass
Distance To
Airport ID:
Nearby VORs <50NM
Nearby NDBs
Nearby WeatherUpdated 07-26-17 09:53 GMT
Nearby weather at KGLH, Greenville Mid-delta located 4.8 nautical miles from MS44
Altimeter: 30.09
Visibility: 10.0 statute miles
Wind: 4 knots (190°)
Temp: 23°c 73°f
Humidity: 94.1%

METAR: KGLH 260953Z AUTO 19004KT 10SM CLR 23/22 A3009 RMK AO2 SLP195 T02280217

(Powered by phpweather)
Runway 08 / 26
Dimensions:1062.2 x 39.6m 3485' x 130'ft
Surface:Grass
Runway 08 [A]Runway 26 [B]
Heading:082°TH 262°TH
Lat:
Lng:
33° 29' 58.3"N
91° 4' 20.95"W
33° 30' 2.52"N
91° 3' 39.82"W
User Notes and Comments
Google Map
Nearby Airports
(C) Greenville Mid-delta 4.8 NM
KGLH (WX) ESE 104°
4 Huntley 9.0 NM
MS25 SE 140°
4 Lewis Air Service 11.4 NM
0MS5 SE 130°
(R) West Bolivar Flying Service 11.5 NM
MS37 NNE 22°
(R) Country Club 11.8 NM
MS15 S 171°
(R) Catfish Point 14.9 NM
0MS8 NNW 337°
4 Skelton 16.6 NM
MS85 ENE 66°
VFR Chart
Flight Planning at SkyVector.com